createdAt,value
2023-02-06T00:01:26.104Z,83.47
2023-02-06T00:03:53.327Z,83.88
2023-02-06T00:06:20.478Z,83.56
2023-02-06T00:08:47.540Z,83.81
2023-02-06T00:11:16.837Z,83.84
2023-02-06T00:13:45.278Z,83.70
2023-02-06T00:16:22.816Z,83.44
2023-02-06T00:18:50.752Z,83.97
2023-02-06T00:21:21.981Z,83.91
2023-02-06T00:23:49.937Z,83.70
2023-02-06T00:26:17.840Z,84.21
2023-02-06T00:28:45.903Z,83.83
2023-02-06T00:31:13.404Z,84.14
2023-02-06T00:33:40.468Z,83.60
2023-02-06T00:36:08.596Z,83.56
2023-02-06T00:38:37.810Z,83.59
2023-02-06T00:41:05.285Z,84.12
2023-02-06T00:43:33.081Z,83.95
2023-02-06T00:46:00.260Z,83.78
2023-02-06T00:48:27.770Z,84.35
2023-02-06T00:50:55.771Z,84.06
2023-02-06T00:53:22.945Z,83.86
2023-02-06T00:55:49.998Z,84.39
2023-02-06T00:58:16.986Z,84.10
2023-02-06T01:00:44.299Z,83.84
2023-02-06T01:03:11.640Z,84.25
2023-02-06T01:05:38.957Z,84.21
2023-02-06T01:08:06.132Z,84.11
2023-02-06T01:10:33.105Z,84.09
2023-02-06T01:13:00.884Z,84.15
2023-02-06T01:15:28.163Z,84.08
2023-02-06T01:17:55.127Z,84.05
2023-02-06T01:20:23.039Z,83.95
2023-02-06T01:22:50.609Z,84.35
2023-02-06T01:25:17.620Z,84.00
2023-02-06T01:27:44.684Z,84.41
2023-02-06T01:30:12.582Z,84.31
2023-02-06T01:32:41.878Z,84.09
2023-02-06T01:35:13.105Z,84.05
2023-02-06T01:37:40.590Z,84.31
2023-02-06T01:40:14.888Z,84.20
2023-02-06T01:42:42.093Z,84.05
2023-02-06T01:45:27.132Z,83.83
2023-02-06T01:48:03.660Z,84.03
2023-02-06T01:50:34.541Z,84.62
2023-02-06T01:53:03.583Z,84.54
2023-02-06T01:55:30.748Z,84.16
2023-02-06T01:57:58.441Z,84.19
2023-02-06T02:00:25.707Z,84.73
2023-02-06T02:02:52.980Z,84.34
2023-02-06T02:05:20.716Z,84.31
2023-02-06T02:07:52.986Z,85.03
2023-02-06T02:10:20.099Z,85.05
2023-02-06T02:12:47.166Z,85.25
2023-02-06T02:15:14.360Z,84.60
2023-02-06T02:17:56.193Z,85.04
2023-02-06T02:21:13.742Z,84.82
2023-02-06T02:23:55.972Z,84.33
2023-02-06T02:26:49.125Z,84.56
2023-02-06T02:29:47.148Z,85.39
2023-02-06T02:32:41.780Z,84.80
2023-02-06T02:35:34.266Z,85.03
2023-02-06T02:38:07.386Z,85.44
2023-02-06T02:40:48.149Z,84.63
2023-02-06T02:43:51.765Z,85.26
2023-02-06T02:46:29.370Z,84.91
2023-02-06T02:49:03.640Z,84.97
2023-02-06T02:51:32.098Z,85.02
2023-02-06T02:53:59.178Z,84.86
2023-02-06T02:56:27.380Z,84.88
2023-02-06T02:59:01.326Z,85.44
2023-02-06T03:01:48.952Z,84.90
2023-02-06T03:04:23.948Z,84.79
2023-02-06T03:07:23.712Z,85.42
2023-02-06T03:10:14.787Z,84.58
2023-02-06T03:13:03.284Z,84.62
2023-02-06T03:15:43.138Z,85.33
2023-02-06T03:18:24.662Z,85.34
2023-02-06T03:20:52.452Z,84.86
2023-02-06T03:23:27.392Z,84.44
2023-02-06T03:25:58.556Z,84.99
2023-02-06T03:28:37.804Z,85.04
2023-02-06T03:31:11.457Z,84.56
2023-02-06T03:33:49.648Z,84.49
2023-02-06T03:36:18.484Z,84.52
2023-02-06T03:38:47.773Z,84.50
2023-02-06T03:41:16.797Z,84.33
2023-02-06T03:43:47.591Z,84.52
2023-02-06T03:46:18.146Z,84.63
2023-02-06T03:48:52.717Z,84.57
2023-02-06T03:51:26.239Z,84.20
2023-02-06T03:53:55.905Z,83.63
2023-02-06T03:56:32.760Z,83.81
2023-02-06T03:59:00.109Z,83.76
2023-02-06T04:01:28.005Z,83.98
2023-02-06T04:03:55.227Z,83.52
2023-02-06T04:06:22.391Z,84.00
2023-02-06T04:08:49.480Z,83.33
2023-02-06T04:11:16.505Z,83.43
2023-02-06T04:13:43.497Z,83.06
2023-02-06T04:16:10.583Z,83.25
2023-02-06T04:18:37.551Z,83.20
2023-02-06T04:21:06.809Z,83.07
2023-02-06T04:23:34.278Z,83.22
2023-02-06T04:26:02.256Z,82.86
2023-02-06T04:28:29.220Z,83.10
2023-02-06T04:30:56.370Z,83.44
2023-02-06T04:33:23.407Z,83.40
2023-02-06T04:35:50.439Z,83.58
2023-02-06T04:38:17.784Z,83.25
2023-02-06T04:40:44.878Z,83.01
2023-02-06T04:43:11.913Z,83.02
2023-02-06T04:45:39.042Z,83.40
2023-02-06T04:48:06.242Z,83.41
2023-02-06T04:50:34.350Z,83.17
2023-02-06T04:53:02.278Z,83.95
2023-02-06T04:55:29.416Z,84.02
2023-02-06T04:57:56.424Z,84.33
2023-02-06T05:00:23.514Z,84.22
2023-02-06T05:02:50.596Z,83.79
2023-02-06T05:05:17.810Z,84.33
2023-02-06T05:07:44.829Z,84.71
2023-02-06T05:10:12.084Z,84.04
2023-02-06T05:12:39.017Z,84.62
2023-02-06T05:15:06.615Z,84.63
2023-02-06T05:17:33.665Z,85.19
2023-02-06T05:20:00.858Z,84.92
2023-02-06T05:22:27.968Z,85.30
2023-02-06T05:24:54.963Z,85.05
2023-02-06T05:27:22.032Z,85.37
2023-02-06T05:29:49.074Z,85.78
2023-02-06T05:32:16.210Z,85.50
2023-02-06T05:34:43.201Z,85.94
2023-02-06T05:37:10.212Z,85.74
2023-02-06T05:39:40.065Z,86.43
2023-02-06T05:42:07.091Z,86.71
2023-02-06T05:44:34.174Z,86.60
2023-02-06T05:47:01.186Z,86.35
2023-02-06T05:49:28.275Z,86.43
2023-02-06T05:51:55.355Z,86.68
2023-02-06T05:54:22.933Z,86.76
2023-02-06T05:56:49.880Z,87.36
2023-02-06T05:59:16.932Z,87.10
2023-02-06T06:01:44.010Z,87.17
2023-02-06T06:04:11.455Z,87.33
2023-02-06T06:06:38.470Z,87.64
2023-02-06T06:09:05.762Z,87.35
2023-02-06T06:11:33.563Z,87.58
2023-02-06T06:14:00.884Z,87.81
2023-02-06T06:16:28.076Z,87.88
2023-02-06T06:18:55.923Z,87.79
2023-02-06T06:21:24.065Z,88.26
2023-02-06T06:23:51.083Z,88.27
2023-02-06T06:26:18.282Z,88.31
2023-02-06T06:28:45.431Z,88.90
2023-02-06T06:31:12.558Z,89.10
2023-02-06T06:33:40.608Z,89.23
2023-02-06T06:36:10.214Z,89.26
2023-02-06T06:38:38.020Z,89.57
2023-02-06T06:41:06.269Z,89.14
2023-02-06T06:43:33.921Z,89.74
2023-02-06T06:46:02.281Z,89.87
2023-02-06T06:48:29.404Z,89.95
2023-02-06T06:50:56.426Z,90.09
2023-02-06T06:53:24.059Z,90.28
2023-02-06T06:55:51.010Z,90.87
2023-02-06T06:58:18.006Z,90.57
2023-02-06T07:00:45.109Z,90.91
2023-02-06T07:03:12.580Z,90.93
2023-02-06T07:05:39.769Z,91.01
2023-02-06T07:08:06.792Z,91.34
2023-02-06T07:10:33.858Z,91.66
2023-02-06T07:13:00.815Z,91.44
2023-02-06T07:15:27.824Z,91.54
2023-02-06T07:17:54.801Z,91.90
2023-02-06T07:20:21.796Z,91.96
2023-02-06T07:22:50.337Z,92.20
2023-02-06T07:25:20.231Z,92.28
2023-02-06T07:27:47.935Z,92.69
2023-02-06T07:30:15.203Z,92.77
2023-02-06T07:32:42.176Z,92.93
2023-02-06T07:35:09.274Z,93.04
2023-02-06T07:37:36.256Z,93.12
2023-02-06T07:40:04.602Z,93.37
2023-02-06T07:42:33.498Z,93.15
2023-02-06T07:45:00.873Z,93.37
2023-02-06T07:47:27.944Z,93.68
2023-02-06T07:49:54.921Z,94.13
2023-02-06T07:52:22.517Z,94.13
2023-02-06T07:54:49.484Z,94.07
2023-02-06T07:57:16.667Z,94.07
2023-02-06T07:59:43.709Z,94.27
2023-02-06T08:02:12.457Z,94.60
2023-02-06T08:04:40.221Z,94.67
2023-02-06T08:07:09.939Z,94.46
2023-02-06T08:09:37.106Z,94.82
2023-02-06T08:12:04.289Z,94.76
2023-02-06T08:14:31.592Z,94.69
2023-02-06T08:16:58.878Z,94.91
2023-02-06T08:19:25.947Z,94.78
2023-02-06T08:21:53.060Z,94.93
2023-02-06T08:24:20.112Z,95.48
2023-02-06T08:26:47.233Z,95.64
2023-02-06T08:29:14.497Z,95.62
2023-02-06T08:31:43.353Z,95.76
2023-02-06T08:34:14.891Z,96.24
2023-02-06T08:36:43.686Z,96.01
2023-02-06T08:39:14.537Z,96.37
2023-02-06T08:41:43.592Z,96.34
2023-02-06T08:44:17.039Z,96.39
2023-02-06T08:46:46.329Z,96.46
2023-02-06T08:49:17.718Z,96.25
2023-02-06T08:51:45.478Z,96.48
2023-02-06T08:54:17.613Z,96.35
2023-02-06T08:56:45.541Z,96.59
2023-02-06T08:59:15.316Z,96.59
2023-02-06T09:01:45.567Z,96.70
2023-02-06T09:04:14.435Z,96.45
2023-02-06T09:06:46.559Z,96.80
2023-02-06T09:09:13.608Z,96.76
2023-02-06T09:11:41.139Z,96.78
2023-02-06T09:14:13.825Z,96.52
2023-02-06T09:16:40.813Z,96.90
2023-02-06T09:19:08.107Z,96.90
2023-02-06T09:21:36.018Z,96.92
2023-02-06T09:24:07.440Z,97.05
2023-02-06T09:26:44.752Z,97.27
2023-02-06T09:29:17.401Z,97.39
2023-02-06T09:31:44.876Z,97.32
2023-02-06T09:34:13.148Z,97.61
2023-02-06T09:36:40.888Z,97.50
2023-02-06T09:39:09.610Z,97.96
2023-02-06T09:41:44.991Z,98.04
2023-02-06T09:44:51.305Z,98.17
2023-02-06T09:47:30.693Z,98.34
2023-02-06T09:50:26.885Z,98.42
2023-02-06T09:53:02.973Z,98.83
2023-02-06T09:55:48.930Z,98.83
2023-02-06T09:58:36.769Z,99.22
2023-02-06T10:01:26.613Z,99.04
2023-02-06T10:04:40.975Z,99.14
2023-02-06T10:07:20.057Z,99.19
2023-02-06T10:09:52.007Z,99.18
2023-02-06T10:12:30.093Z,99.71
2023-02-06T10:15:20.957Z,99.31
2023-02-06T10:17:58.801Z,99.19
2023-02-06T10:20:56.144Z,99.60
2023-02-06T10:23:49.305Z,99.83
2023-02-06T10:26:19.121Z,99.84
2023-02-06T10:28:53.108Z,99.95
2023-02-06T10:31:26.515Z,100.00
2023-02-06T10:34:44.008Z,100.00
2023-02-06T10:37:58.105Z,99.75
2023-02-06T10:40:55.286Z,99.62
2023-02-06T10:43:53.764Z,99.95
2023-02-06T10:46:26.619Z,99.97
2023-02-06T10:49:35.547Z,99.64
2023-02-06T10:52:22.401Z,99.58
2023-02-06T10:54:59.572Z,99.68
2023-02-06T10:57:31.317Z,99.23
2023-02-06T11:00:01.398Z,99.29
2023-02-06T11:03:06.774Z,99.56
2023-02-06T11:05:36.044Z,100.00
2023-02-06T11:08:24.688Z,99.88
2023-02-06T11:10:52.517Z,99.61
2023-02-06T11:13:31.964Z,99.22
2023-02-06T11:16:06.431Z,98.83
2023-02-06T11:18:41.244Z,99.07
2023-02-06T11:21:10.706Z,99.19
2023-02-06T11:23:37.676Z,99.06
2023-02-06T11:26:18.943Z,99.17
2023-02-06T11:28:54.260Z,99.51
2023-02-06T11:31:44.388Z,99.19
2023-02-06T11:34:30.553Z,99.34
2023-02-06T11:37:07.449Z,99.39
2023-02-06T11:39:39.871Z,99.61
2023-02-06T11:42:24.722Z,100.00
2023-02-06T11:44:53.082Z,100.00
2023-02-06T11:47:33.008Z,99.78
2023-02-06T11:50:15.247Z,99.78
2023-02-06T11:52:46.900Z,99.83
2023-02-06T11:55:29.854Z,99.59
2023-02-06T11:58:14.995Z,99.21
2023-02-06T12:00:58.870Z,99.10
2023-02-06T12:03:46.221Z,99.17
2023-02-06T12:06:33.064Z,99.01
2023-02-06T12:09:05.953Z,99.02
2023-02-06T12:11:49.320Z,98.89
2023-02-06T12:14:38.946Z,99.02
2023-02-06T12:17:23.734Z,98.86
2023-02-06T12:20:33.158Z,98.49
2023-02-06T12:23:24.126Z,98.59
2023-02-06T12:25:57.048Z,98.42
2023-02-06T12:28:34.096Z,98.03
2023-02-06T12:31:19.597Z,98.31
2023-02-06T12:33:54.939Z,98.11
2023-02-06T12:36:35.246Z,97.63
2023-02-06T12:39:13.225Z,97.16
2023-02-06T12:42:02.902Z,97.11
2023-02-06T12:45:02.183Z,97.06
2023-02-06T12:47:49.483Z,97.19
2023-02-06T12:50:34.696Z,97.30
2023-02-06T12:53:19.080Z,97.38
2023-02-06T12:56:23.242Z,97.70
2023-02-06T12:59:41.634Z,97.86
2023-02-06T13:02:45.942Z,97.45
2023-02-06T13:05:34.411Z,97.26
2023-02-06T13:08:10.307Z,97.47
2023-02-06T13:10:38.499Z,97.24
2023-02-06T13:13:06.125Z,96.73
2023-02-06T13:15:40.704Z,96.54
2023-02-06T13:18:42.092Z,96.89
2023-02-06T13:21:32.385Z,97.21
2023-02-06T13:24:02.363Z,97.18
2023-02-06T13:26:53.114Z,97.00
2023-02-06T13:29:28.198Z,96.55
2023-02-06T13:32:18.512Z,97.18
2023-02-06T13:35:07.581Z,97.15
2023-02-06T13:37:48.300Z,96.75
2023-02-06T13:40:24.475Z,97.05
2023-02-06T13:43:21.692Z,96.97
2023-02-06T13:46:00.416Z,96.87
2023-02-06T13:48:52.868Z,96.65
2023-02-06T13:51:57.571Z,96.19
2023-02-06T13:54:54.700Z,96.20
2023-02-06T13:57:52.658Z,96.65
2023-02-06T14:00:28.886Z,96.89
2023-02-06T14:03:29.884Z,96.16
2023-02-06T14:06:51.959Z,96.07
2023-02-06T14:09:36.676Z,96.13
2023-02-06T14:12:44.491Z,96.02
2023-02-06T14:15:30.038Z,95.83
2023-02-06T14:18:16.598Z,95.97
2023-02-06T14:21:01.966Z,95.62
2023-02-06T14:24:00.110Z,95.41
2023-02-06T14:26:41.879Z,95.73
2023-02-06T14:29:51.697Z,96.02
2023-02-06T14:32:54.279Z,96.08
2023-02-06T14:35:50.764Z,95.81
2023-02-06T14:38:50.287Z,95.54
2023-02-06T14:41:17.972Z,95.39
2023-02-06T14:43:46.817Z,95.49
2023-02-06T14:46:18.122Z,95.83
2023-02-06T14:48:56.428Z,95.68
2023-02-06T14:51:34.140Z,95.68
2023-02-06T14:54:06.911Z,95.17
2023-02-06T14:56:37.569Z,95.30
2023-02-06T14:59:13.430Z,95.39
2023-02-06T15:01:42.812Z,95.00
2023-02-06T15:04:26.387Z,95.07
2023-02-06T15:07:03.433Z,95.27
2023-02-06T15:09:33.659Z,95.09
2023-02-06T15:12:18.953Z,95.00
2023-02-06T15:15:02.705Z,94.91
2023-02-06T15:17:31.578Z,94.83
2023-02-06T15:20:40.884Z,95.17
2023-02-06T15:23:18.895Z,95.52
2023-02-06T15:26:08.956Z,95.41
2023-02-06T15:28:37.981Z,95.52
2023-02-06T15:31:19.039Z,96.08
2023-02-06T15:33:53.214Z,95.89
2023-02-06T15:36:30.766Z,96.09
2023-02-06T15:39:00.003Z,95.92
2023-02-06T15:41:30.920Z,96.24
2023-02-06T15:44:04.386Z,96.01
2023-02-06T15:46:31.909Z,95.78
2023-02-06T15:48:59.278Z,95.56
2023-02-06T15:51:38.610Z,95.20
2023-02-06T15:54:09.270Z,95.53
2023-02-06T15:56:40.594Z,95.22
2023-02-06T15:59:23.066Z,95.42
2023-02-06T16:01:52.847Z,95.18
2023-02-06T16:04:27.399Z,95.23
2023-02-06T16:07:05.463Z,95.45
2023-02-06T16:09:41.203Z,95.37
2023-02-06T16:12:09.852Z,96.04
2023-02-06T16:14:50.999Z,95.90
2023-02-06T16:17:17.874Z,96.40
2023-02-06T16:20:04.977Z,95.96
2023-02-06T16:22:38.290Z,96.40
2023-02-06T16:25:31.496Z,96.18
2023-02-06T16:27:59.780Z,96.07
2023-02-06T16:30:36.439Z,95.74
2023-02-06T16:33:38.099Z,95.62
2023-02-06T16:36:05.622Z,96.02
2023-02-06T16:38:33.194Z,96.06
2023-02-06T16:41:00.313Z,95.96
2023-02-06T16:43:30.226Z,95.97
2023-02-06T16:45:59.543Z,96.54
2023-02-06T16:48:26.504Z,96.06
2023-02-06T16:50:53.456Z,96.36
2023-02-06T16:53:24.838Z,95.96
2023-02-06T16:55:52.480Z,96.28
2023-02-06T16:58:23.972Z,96.08
2023-02-06T17:00:51.815Z,96.55
2023-02-06T17:03:18.918Z,96.36
2023-02-06T17:05:48.676Z,96.83
2023-02-06T17:08:22.094Z,96.57
2023-02-06T17:10:50.020Z,96.07
2023-02-06T17:13:23.840Z,96.48
2023-02-06T17:15:54.849Z,96.25
2023-02-06T17:18:23.504Z,96.21
2023-02-06T17:20:53.313Z,96.54
2023-02-06T17:23:20.544Z,96.86
2023-02-06T17:25:47.613Z,96.59
2023-02-06T17:28:18.928Z,96.71
2023-02-06T17:30:46.440Z,96.28
2023-02-06T17:33:13.520Z,96.36
2023-02-06T17:35:40.600Z,96.67
2023-02-06T17:38:09.692Z,96.52
2023-02-06T17:40:40.148Z,96.39
2023-02-06T17:43:07.729Z,96.35
2023-02-06T17:45:38.234Z,96.19
2023-02-06T17:48:06.401Z,95.82
2023-02-06T17:50:34.298Z,96.11
2023-02-06T17:53:02.844Z,96.18
2023-02-06T17:55:29.782Z,96.59
2023-02-06T17:57:56.791Z,96.48
2023-02-06T18:00:25.303Z,96.41
2023-02-06T18:02:54.071Z,96.37
2023-02-06T18:07:51.940Z,96.51
2023-02-06T18:10:21.371Z,96.32
2023-02-06T18:12:49.035Z,96.42
2023-02-06T18:15:16.807Z,96.65
2023-02-06T18:17:44.102Z,96.03
2023-02-06T18:20:12.184Z,96.25
2023-02-06T18:22:42.165Z,96.31
2023-02-06T18:25:12.840Z,96.29
2023-02-06T18:27:41.979Z,96.39
2023-02-06T18:30:10.280Z,96.56
2023-02-06T18:32:38.368Z,96.63
2023-02-06T18:35:07.708Z,96.83
2023-02-06T18:37:35.083Z,96.92
2023-02-06T18:40:02.784Z,96.67
2023-02-06T18:42:48.244Z,96.55
2023-02-06T18:45:15.219Z,96.84
2023-02-06T18:47:42.430Z,96.40
2023-02-06T18:50:11.333Z,96.54
2023-02-06T18:52:39.340Z,96.54
2023-02-06T18:55:08.679Z,96.85
2023-02-06T18:57:36.589Z,96.81
2023-02-06T19:00:06.868Z,97.01
2023-02-06T19:02:34.021Z,97.21
2023-02-06T19:05:00.959Z,96.93
2023-02-06T19:07:28.074Z,96.49
2023-02-06T19:10:00.853Z,96.78
2023-02-06T19:12:29.296Z,96.86
2023-02-06T19:14:58.190Z,96.63
2023-02-06T19:17:26.960Z,96.88
2023-02-06T19:19:54.275Z,96.73
2023-02-06T19:22:21.508Z,96.61
2023-02-06T19:24:48.618Z,96.44
2023-02-06T19:27:15.582Z,96.41
2023-02-06T19:29:42.505Z,96.60
2023-02-06T19:32:09.943Z,96.70
2023-02-06T19:34:39.850Z,97.07
2023-02-06T19:37:09.545Z,96.59
2023-02-06T19:39:38.012Z,97.06
2023-02-06T19:42:10.046Z,97.02
2023-02-06T19:44:38.020Z,97.33
2023-02-06T19:47:05.139Z,97.31
2023-02-06T19:49:32.577Z,97.29
2023-02-06T19:52:00.356Z,97.37
2023-02-06T19:54:27.787Z,96.94
2023-02-06T19:56:55.113Z,97.19
2023-02-06T19:59:27.239Z,96.88
2023-02-06T20:02:02.217Z,97.22
2023-02-06T20:04:34.138Z,97.08
2023-02-06T20:07:02.228Z,97.07
2023-02-06T20:09:29.756Z,97.05
2023-02-06T20:11:57.951Z,97.36
2023-02-06T20:14:26.094Z,97.80
2023-02-06T20:16:53.211Z,97.38
2023-02-06T20:19:27.887Z,97.56
2023-02-06T20:21:59.846Z,97.35
2023-02-06T20:24:31.309Z,97.37
2023-02-06T20:27:02.232Z,97.62
2023-02-06T20:29:38.584Z,97.61
2023-02-06T20:32:07.006Z,97.29
2023-02-06T20:34:35.275Z,97.42
2023-02-06T20:37:02.296Z,97.62
2023-02-06T20:39:30.886Z,97.85
2023-02-06T20:41:58.083Z,98.04
2023-02-06T20:44:25.048Z,97.40
2023-02-06T20:46:52.254Z,97.58
2023-02-06T20:49:23.273Z,97.35
2023-02-06T20:51:51.125Z,97.13
2023-02-06T20:54:20.184Z,97.41
2023-02-06T20:56:47.598Z,97.10
2023-02-06T20:59:20.074Z,97.07
2023-02-06T21:01:47.695Z,96.93
2023-02-06T21:04:16.662Z,97.08
2023-02-06T21:06:44.543Z,97.37
2023-02-06T21:09:12.175Z,97.14
2023-02-06T21:11:44.271Z,97.62
2023-02-06T21:14:12.241Z,97.89
2023-02-06T21:16:40.470Z,97.80
2023-02-06T21:19:10.360Z,97.74
2023-02-06T21:21:38.520Z,97.50
2023-02-06T21:24:06.549Z,97.48
2023-02-06T21:26:33.729Z,97.78
2023-02-06T21:29:02.501Z,97.64
2023-02-06T21:31:37.733Z,97.31
2023-02-06T21:34:11.660Z,97.54
2023-02-06T21:36:39.885Z,97.53
2023-02-06T21:39:08.944Z,97.88
2023-02-06T21:41:36.714Z,98.26
2023-02-06T21:44:04.532Z,98.25
2023-02-06T21:46:31.843Z,97.71
2023-02-06T21:48:59.033Z,98.32
2023-02-06T21:51:26.234Z,98.37
2023-02-06T21:53:53.199Z,98.34
2023-02-06T21:56:24.323Z,98.12
2023-02-06T21:58:52.024Z,98.31
2023-02-06T22:01:29.160Z,97.74
2023-02-06T22:03:57.323Z,97.80
2023-02-06T22:06:24.505Z,97.85
2023-02-06T22:08:54.218Z,97.71
2023-02-06T22:11:30.316Z,97.95
2023-02-06T22:14:04.227Z,98.14
2023-02-06T22:16:31.701Z,97.99
2023-02-06T22:19:00.677Z,97.74
2023-02-06T22:21:30.514Z,97.85
2023-02-06T22:24:01.233Z,97.56
2023-02-06T22:26:30.295Z,97.67
2023-02-06T22:29:01.002Z,97.78
2023-02-06T22:31:32.144Z,97.81
2023-02-06T22:34:01.141Z,98.04
2023-02-06T22:36:31.406Z,98.15
2023-02-06T22:39:02.272Z,98.00
2023-02-06T22:41:30.387Z,97.88
2023-02-06T22:43:58.191Z,98.14
2023-02-06T22:46:33.636Z,98.09
2023-02-06T22:49:00.727Z,98.21
2023-02-06T22:51:28.229Z,98.36
2023-02-06T22:53:56.294Z,97.85
2023-02-06T22:56:31.449Z,97.98
2023-02-06T22:59:12.085Z,97.37
2023-02-06T23:01:46.100Z,97.37
2023-02-06T23:04:26.414Z,97.10
2023-02-06T23:06:53.477Z,97.39
2023-02-06T23:09:27.159Z,97.52
2023-02-06T23:11:58.071Z,97.21
2023-02-06T23:14:26.092Z,97.30
2023-02-06T23:16:53.050Z,97.24
2023-02-06T23:19:20.602Z,97.56
2023-02-06T23:21:51.170Z,97.09
2023-02-06T23:24:19.510Z,97.62
2023-02-06T23:26:49.285Z,98.03
2023-02-06T23:29:18.298Z,97.86
2023-02-06T23:31:47.301Z,97.30
2023-02-06T23:34:15.568Z,97.76
2023-02-06T23:36:44.821Z,97.36
2023-02-06T23:39:12.044Z,97.41
2023-02-06T23:41:39.461Z,97.88
2023-02-06T23:44:08.069Z,97.89
2023-02-06T23:46:38.508Z,97.65
2023-02-06T23:49:06.517Z,97.08
2023-02-06T23:51:35.052Z,97.26
2023-02-06T23:54:02.602Z,97.02
2023-02-06T23:56:32.020Z,97.28
2023-02-06T23:59:01.466Z,97.29
